Time;durP1;ratioP1;P1;durP2;ratioP2;P2;SDS_P1;SDS_P2;PMS_P1;PMS_P2;Temp;Humidity;BMP_temperature;BMP_pressure;BME280_temperature;BME280_humidity;BME280_pressure;Samples;Min_cycle;Max_cycle;Signal;HPM_P1;HPM_P2
2022/01/01 00:02:03;;;;;;;44.33;37.43;;;;;;;8.73;100.00;101354.13;5012683;28;20656;-50
2022/01/01 00:04:29;;;;;;;48.20;43.07;;;;;;;8.75;100.00;101353.31;5009965;28;20243;-50
2022/01/01 00:06:54;;;;;;;50.27;44.97;;;;;;;8.77;100.00;101349.03;5010105;28;20687;-50
2022/01/01 00:09:19;;;;;;;48.57;43.43;;;;;;;8.80;100.00;101358.53;5010668;28;20227;-50
2022/01/01 00:11:45;;;;;;;47.93;42.83;;;;;;;8.81;100.00;101358.59;5011455;28;20571;-50
2022/01/01 00:14:10;;;;;;;46.33;41.40;;;;;;;8.84;100.00;101362.91;5010100;28;20619;-50
2022/01/01 00:16:36;;;;;;;44.97;40.17;;;;;;;8.85;100.00;101370.66;5013996;28;20214;-50
2022/01/01 00:19:01;;;;;;;43.73;39.03;;;;;;;8.88;100.00;101367.28;5010544;28;20187;-50
2022/01/01 00:21:27;;;;;;;43.10;38.63;;;;;;;8.90;100.00;101385.38;5012404;28;20192;-50
2022/01/01 00:23:53;;;;;;;43.90;38.60;;;;;;;8.90;100.00;101378.50;5010190;28;20220;-50
2022/01/01 00:26:18;;;;;;;41.63;37.13;;;;;;;8.92;100.00;101394.00;5011400;28;20270;-50
2022/01/01 00:28:44;;;;;;;38.10;33.80;;;;;;;8.94;100.00;101395.75;5013935;28;20298;-50
2022/01/01 00:31:10;;;;;;;34.50;31.07;;;;;;;8.96;100.00;101399.25;5022347;28;20216;-50
2022/01/01 00:33:35;;;;;;;28.87;25.93;;;;;;;8.98;100.00;101394.13;5009618;28;20245;-50
2022/01/01 00:36:00;;;;;;;30.47;27.27;;;;;;;9.00;100.00;101392.41;5016133;28;20632;-50
2022/01/01 00:38:26;;;;;;;29.43;26.33;;;;;;;9.01;100.00;101391.56;5012286;28;20582;-50
2022/01/01 00:40:51;;;;;;;29.63;26.43;;;;;;;9.03;100.00;101397.63;5015835;28;20585;-50
2022/01/01 00:43:17;;;;;;;30.00;25.37;;;;;;;9.04;100.00;101401.09;5010571;28;20200;-50
2022/01/01 00:45:42;;;;;;;28.13;25.10;;;;;;;9.04;100.00;101396.78;5010957;28;20257;-50
2022/01/01 00:48:07;;;;;;;26.73;23.90;;;;;;;9.06;100.00;101399.41;5012635;28;20215;-50
2022/01/01 00:50:33;;;;;;;25.60;23.00;;;;;;;9.06;100.00;101397.66;5019051;28;20221;-50
2022/01/01 00:52:59;;;;;;;25.53;22.97;;;;;;;9.07;100.00;101394.25;5016239;28;20670;-50
2022/01/01 00:55:24;;;;;;;24.70;22.10;;;;;;;9.06;100.00;101397.66;5011662;28;20693;-50
2022/01/01 00:57:50;;;;;;;23.87;21.47;;;;;;;9.08;100.00;101392.53;5018564;28;20207;-50
2022/01/01 01:00:15;;;;;;;21.87;19.77;;;;;;;9.07;100.00;101376.16;5015914;28;20234;-50
2022/01/01 01:02:41;;;;;;;21.23;19.17;;;;;;;9.08;100.00;101385.66;5009216;28;20267;-50
2022/01/01 01:05:07;;;;;;;20.90;18.80;;;;;;;9.09;100.00;101399.41;5019463;28;20241;-50
2022/01/01 01:07:32;;;;;;;24.33;21.87;;;;;;;9.09;100.00;101397.72;5007695;28;20684;-50
2022/01/01 01:09:57;;;;;;;29.17;25.80;;;;;;;9.10;100.00;101393.41;5015238;28;20198;-50
2022/01/01 01:12:26;;;;;;;31.43;27.00;;;;;;;9.09;100.00;101387.41;5013911;28;20211;-50
2022/01/01 01:14:53;;;;;;;32.80;28.57;;;;;;;9.12;100.00;101394.31;5011113;28;20187;-51
2022/01/01 01:17:19;;;;;;;37.70;32.50;;;;;;;9.12;100.00;101391.72;5012797;28;20242;-50
2022/01/01 01:19:44;;;;;;;43.07;34.17;;;;;;;9.13;100.00;101394.34;5017405;28;20645;-50
2022/01/01 01:22:10;;;;;;;48.80;37.30;;;;;;;9.13;100.00;101404.69;5014720;28;20192;-50
2022/01/01 01:24:35;;;;;;;45.97;35.97;;;;;;;9.15;100.00;101402.97;5019919;28;20219;-50
2022/01/01 01:27:03;;;;;;;40.80;32.70;;;;;;;9.15;100.00;101405.53;5021967;28;20579;-50
2022/01/01 01:29:33;;;;;;;37.17;30.37;;;;;;;9.17;100.00;101402.13;5020377;28;20662;-50
2022/01/01 01:31:58;;;;;;;31.03;25.87;;;;;;;9.18;100.00;101409.03;5016179;28;20247;-50
2022/01/01 01:34:24;;;;;;;29.43;24.13;;;;;;;9.19;100.00;101398.72;5014768;28;20660;-50
2022/01/01 01:36:49;;;;;;;25.80;21.63;;;;;;;9.19;100.00;101398.72;5016646;28;20768;-50
2022/01/01 01:39:15;;;;;;;23.40;20.83;;;;;;;9.21;100.00;101411.66;5015276;28;20275;-50
2022/01/01 01:41:43;;;;;;;28.90;25.67;;;;;;;9.20;100.00;101403.06;5017139;28;20196;-50
2022/01/01 01:44:23;;;;;;;33.07;27.70;;;;;;;9.20;100.00;101404.75;5018010;28;20249;-50
2022/01/01 01:46:48;;;;;;;28.37;25.27;;;;;;;9.19;100.00;101403.00;5014881;28;20279;-49
2022/01/01 01:49:14;;;;;;;27.93;24.50;;;;;;;9.18;100.00;101409.03;5019979;28;20271;-49
2022/01/01 01:51:40;;;;;;;27.50;24.60;;;;;;;9.15;100.00;101407.28;5012503;28;20235;-50
2022/01/01 01:54:08;;;;;;;27.03;24.13;;;;;;;9.12;100.00;101404.63;5026601;28;20258;-49
2022/01/01 01:56:37;;;;;;;25.27;22.67;;;;;;;9.10;100.00;101402.03;5022238;28;20653;-49
2022/01/01 01:59:02;;;;;;;26.83;24.03;;;;;;;9.09;100.00;101408.06;5013577;28;20276;-49
2022/01/01 02:01:28;;;;;;;26.33;23.63;;;;;;;9.08;100.00;101405.44;5012803;28;20214;-49
2022/01/01 02:03:56;;;;;;;26.83;24.23;;;;;;;9.07;100.00;101393.41;5015018;28;20694;-49
2022/01/01 02:06:23;;;;;;;28.60;25.63;;;;;;;9.05;100.00;101384.75;5012863;28;20203;-49
2022/01/01 02:08:51;;;;;;;31.57;28.17;;;;;;;9.04;100.00;101388.19;5009780;28;20276;-49
2022/01/01 02:11:18;;;;;;;32.67;28.93;;;;;;;9.00;100.00;101384.66;5022169;28;20212;-49
2022/01/01 02:16:32;;;;;;;29.10;26.00;;;;;;;8.92;100.00;101378.53;5016700;28;20570;-49
2022/01/01 02:18:57;;;;;;;28.80;25.73;;;;;;;8.87;100.00;101380.16;5022848;28;20193;-49
2022/01/01 02:21:23;;;;;;;28.37;25.00;;;;;;;8.81;100.00;101376.66;5015435;28;20191;-49
2022/01/01 02:23:57;;;;;;;28.17;25.17;;;;;;;8.77;100.00;101366.25;5015977;28;20207;-49
2022/01/01 02:26:28;;;;;;;28.13;25.23;;;;;;;8.73;100.00;101360.16;5010136;28;20231;-50
2022/01/01 02:28:54;;;;;;;26.67;23.87;;;;;;;8.68;100.00;101362.66;5016084;28;20301;-49
2022/01/01 02:31:19;;;;;;;24.70;22.20;;;;;;;8.64;100.00;101368.63;5007321;28;20216;-49
2022/01/01 02:33:45;;;;;;;25.13;22.60;;;;;;;8.62;100.00;101362.56;5011348;28;20195;-49
2022/01/01 02:36:12;;;;;;;24.77;22.23;;;;;;;8.62;100.00;101361.69;5016568;28;20286;-49
2022/01/01 02:38:38;;;;;;;24.10;21.67;;;;;;;8.63;100.00;101371.19;5016922;28;20598;-50
2022/01/01 02:41:04;;;;;;;24.20;21.60;;;;;;;8.63;100.00;101366.88;5019934;28;20726;-48
2022/01/01 02:43:31;;;;;;;25.40;22.90;;;;;;;8.65;100.00;101364.34;5022296;28;20189;-49
2022/01/01 02:45:56;;;;;;;27.53;24.63;;;;;;;8.65;100.00;101354.88;5010730;28;20191;-50
2022/01/01 02:48:23;;;;;;;27.83;24.83;;;;;;;8.67;100.00;101350.59;5016298;28;20243;-50
2022/01/01 02:50:51;;;;;;;25.10;22.50;;;;;;;8.68;100.00;101354.06;5011235;28;20569;-50
2022/01/01 02:53:17;;;;;;;25.53;22.93;;;;;;;8.71;100.00;101359.25;5008982;28;20652;-50
2022/01/01 02:55:43;;;;;;;26.83;23.93;;;;;;;8.73;100.00;101356.72;5016646;28;20192;-50
2022/01/01 02:58:10;;;;;;;23.73;21.33;;;;;;;8.75;100.00;101357.63;5020712;28;20223;-50
2022/01/01 03:00:36;;;;;;;24.23;21.77;;;;;;;8.77;100.00;101356.78;5017453;28;20185;-50
2022/01/01 03:03:01;;;;;;;25.03;22.43;;;;;;;8.77;100.00;101356.78;5014316;28;20207;-50
2022/01/01 03:05:27;;;;;;;25.73;23.03;;;;;;;8.76;100.00;101360.22;5020739;28;20208;-50
2022/01/01 03:07:52;;;;;;;25.57;23.03;;;;;;;8.76;100.00;101359.34;5014106;28;20215;-50
2022/01/01 03:10:18;;;;;;;26.03;23.40;;;;;;;8.74;100.00;101354.16;5014014;28;20559;-50
2022/01/01 03:12:43;;;;;;;26.43;23.70;;;;;;;8.73;100.00;101347.25;5015339;28;20682;-50
2022/01/01 03:15:09;;;;;;;26.40;23.80;;;;;;;8.71;100.00;101341.19;5013574;28;20190;-50
2022/01/01 03:17:34;;;;;;;29.47;26.27;;;;;;;8.69;100.00;101341.19;5020747;28;20746;-50
2022/01/01 03:19:59;;;;;;;27.30;24.50;;;;;;;8.67;100.00;101336.84;5015888;28;20191;-50
2022/01/01 03:22:25;;;;;;;25.83;23.17;;;;;;;8.65;100.00;101341.97;5020143;28;20719;-50
2022/01/01 03:24:50;;;;;;;25.30;22.70;;;;;;;8.61;100.00;101336.75;5023688;28;20231;-50
2022/01/01 03:27:16;;;;;;;25.27;22.73;;;;;;;8.61;100.00;101336.75;5016022;28;20242;-50
2022/01/01 03:29:41;;;;;;;24.60;22.03;;;;;;;8.59;100.00;101333.25;5021278;28;20187;-50
2022/01/01 03:32:07;;;;;;;23.73;20.97;;;;;;;8.53;100.00;101324.59;5026195;28;20649;-50
2022/01/01 03:34:32;;;;;;;23.57;21.17;;;;;;;8.45;100.00;101331.28;5015513;28;20196;-50
2022/01/01 03:36:58;;;;;;;22.70;20.30;;;;;;;8.34;100.00;101331.09;5017954;28;20630;-50
2022/01/01 03:39:23;;;;;;;24.63;22.20;;;;;;;8.24;100.00;101337.81;5016154;28;20579;-50
2022/01/01 03:41:50;;;;;;;23.73;21.33;;;;;;;8.12;100.00;101332.44;5021952;28;20195;-50
2022/01/01 03:44:15;;;;;;;23.27;20.97;;;;;;;8.00;100.00;101317.66;5036946;28;20193;-50
2022/01/01 03:46:40;;;;;;;25.40;22.63;;;;;;;7.90;100.00;101316.59;5032589;28;20192;-50
2022/01/01 03:49:06;;;;;;;24.20;21.60;;;;;;;7.80;100.00;101308.66;5023010;28;20253;-50
2022/01/01 03:51:31;;;;;;;24.23;21.80;;;;;;;7.69;100.00;101322.22;5016170;28;20724;-51
2022/01/01 03:53:57;;;;;;;23.43;21.03;;;;;;;7.59;100.00;101315.13;5028031;28;20277;-50
2022/01/01 03:56:22;;;;;;;23.67;20.93;;;;;;;7.49;100.00;101321.78;5012954;28;20214;-50
2022/01/01 03:58:48;;;;;;;24.67;22.07;;;;;;;7.40;100.00;101324.19;5021870;28;20569;-50
2022/01/01 04:01:13;;;;;;;24.33;21.83;;;;;;;7.30;100.00;101323.13;5010318;28;20200;-50
2022/01/01 04:03:39;;;;;;;24.27;21.60;;;;;;;7.20;100.00;101316.91;5021443;28;20197;-50
2022/01/01 04:06:04;;;;;;;24.63;21.40;;;;;;;7.13;100.00;101321.06;5019700;28;20807;-50
2022/01/01 04:08:33;;;;;;;21.73;19.50;;;;;;;7.04;100.00;101312.25;5019776;28;20697;-50
2022/01/01 04:10:58;;;;;;;22.87;20.33;;;;;;;6.95;100.00;101315.53;5019123;28;20236;-50
2022/01/01 04:13:24;;;;;;;24.43;21.83;;;;;;;6.90;100.00;101312.81;5019047;28;20634;-49
2022/01/01 04:15:49;;;;;;;25.67;22.70;;;;;;;6.84;100.00;101303.25;5010711;28;20256;-50
2022/01/01 04:18:25;;;;;;;25.87;23.13;;;;;;;6.78;100.00;101304.81;5011813;28;20223;-50
2022/01/01 04:20:51;;;;;;;25.17;22.47;;;;;;;6.73;100.00;101301.28;5020166;28;20194;-50
2022/01/01 04:23:16;;;;;;;24.53;21.93;;;;;;;6.67;100.00;101299.41;5015305;28;20559;-50
2022/01/01 04:25:44;;;;;;;25.80;23.03;;;;;;;6.62;100.00;101304.47;5012508;28;20198;-50
2022/01/01 04:28:09;;;;;;;25.20;22.60;;;;;;;6.57;100.00;101300.94;5019864;28;20309;-50
2022/01/01 04:30:34;;;;;;;24.43;21.93;;;;;;;6.52;100.00;101300.81;5021996;28;20327;-50
2022/01/01 04:33:00;;;;;;;23.27;20.77;;;;;;;6.49;100.00;101298.19;5016275;28;20280;-50
2022/01/01 04:35:26;;;;;;;21.73;19.07;;;;;;;6.46;100.00;101295.53;5019310;28;20201;-50
2022/01/01 04:37:52;;;;;;;21.03;18.87;;;;;;;6.41;100.00;101291.97;5013348;28;20687;-50
2022/01/01 04:40:18;;;;;;;20.90;18.33;;;;;;;6.39;100.00;101301.34;5018144;28;20238;-50
2022/01/01 04:42:43;;;;;;;20.77;17.13;;;;;;;6.34;100.00;101301.22;5019290;28;20203;-50
2022/01/01 04:45:10;;;;;;;18.70;16.67;;;;;;;6.30;100.00;101293.41;5016610;28;20219;-50
2022/01/01 04:47:35;;;;;;;18.53;16.63;;;;;;;6.25;100.00;101290.72;5018405;28;20253;-50
2022/01/01 04:50:03;;;;;;;18.97;16.97;;;;;;;6.23;100.00;101298.38;5022865;28;20189;-50
2022/01/01 04:52:29;;;;;;;18.80;16.80;;;;;;;6.19;100.00;101305.97;5018139;28;20261;-50
2022/01/01 04:54:54;;;;;;;19.13;17.00;;;;;;;6.13;100.00;101319.56;5019635;28;20646;-50
2022/01/01 04:57:21;;;;;;;20.00;17.87;;;;;;;6.09;100.00;101318.63;5016862;28;20222;-50
2022/01/01 04:59:46;;;;;;;18.77;16.87;;;;;;;6.04;100.00;101321.91;5014577;28;20585;-50
2022/01/01 05:02:12;;;;;;;19.20;17.23;;;;;;;5.97;100.00;101328.53;5019702;28;20251;-50
2022/01/01 05:04:38;;;;;;;18.80;16.80;;;;;;;5.92;100.00;101330.97;5019616;28;20234;-49
2022/01/01 05:07:05;;;;;;;17.20;15.40;;;;;;;5.87;100.00;101331.66;5013173;28;20236;-50
2022/01/01 05:09:30;;;;;;;17.93;16.03;;;;;;;5.81;100.00;101340.09;5015639;28;20185;-50
2022/01/01 05:11:56;;;;;;;17.27;15.33;;;;;;;5.76;100.00;101332.25;5015777;28;20210;-50
2022/01/01 05:14:21;;;;;;;15.47;13.97;;;;;;;5.70;100.00;101344.91;5008837;28;20696;-50
2022/01/01 05:16:47;;;;;;;15.47;13.97;;;;;;;5.63;100.00;101354.16;5017399;28;20318;-50
2022/01/01 05:19:12;;;;;;;16.87;15.07;;;;;;;5.60;100.00;101350.63;5015375;28;20213;-50
2022/01/01 05:21:37;;;;;;;15.97;14.37;;;;;;;5.61;100.00;101363.50;5012385;28;20227;-50
2022/01/01 05:24:05;;;;;;;17.50;15.67;;;;;;;5.63;100.00;101371.25;5016782;28;20216;-50
2022/01/01 05:26:31;;;;;;;16.27;14.57;;;;;;;5.71;100.00;101374.91;5017246;28;20197;-50
2022/01/01 05:28:56;;;;;;;18.00;14.27;;;;;;;5.79;100.00;101381.16;5005323;28;20293;-50
2022/01/01 05:31:22;;;;;;;15.70;14.10;;;;;;;5.89;100.00;101383.97;5011720;28;20270;-50
2022/01/01 05:33:52;;;;;;;14.87;13.47;;;;;;;6.00;100.00;101386.88;5018720;28;20198;-49
2022/01/01 05:36:17;;;;;;;15.07;13.53;;;;;;;6.07;100.00;101375.91;5021237;28;20649;-50
2022/01/01 05:38:44;;;;;;;13.37;12.07;;;;;;;6.15;100.00;101378.69;5015412;28;20218;-49
2022/01/01 05:41:10;;;;;;;13.63;12.23;;;;;;;6.24;100.00;101384.09;5017079;28;20611;-50
2022/01/01 05:43:36;;;;;;;13.20;11.90;;;;;;;6.33;100.00;101392.03;5022641;28;20212;-50
2022/01/01 05:46:01;;;;;;;15.07;13.47;;;;;;;6.40;100.00;101393.97;5016401;28;20236;-50
2022/01/01 05:48:27;;;;;;;17.37;15.67;;;;;;;6.45;100.00;101383.78;5007610;28;20225;-50
2022/01/01 05:50:53;;;;;;;18.00;15.80;;;;;;;6.49;100.00;101389.88;5016837;28;20215;-50
2022/01/01 05:53:19;;;;;;;17.70;15.93;;;;;;;6.54;100.00;101386.59;5017173;28;20305;-50
2022/01/01 05:55:45;;;;;;;18.30;16.47;;;;;;;6.61;100.00;101381.59;5009139;28;20188;-50
2022/01/01 05:58:10;;;;;;;17.77;15.87;;;;;;;6.65;100.00;101374.00;5008243;28;20268;-50
2022/01/01 06:00:38;;;;;;;17.47;15.57;;;;;;;6.68;100.00;101371.50;5016479;28;20192;-50
2022/01/01 06:03:03;;;;;;;17.10;15.40;;;;;;;6.70;100.00;101362.13;5014556;28;20190;-50
2022/01/01 06:05:30;;;;;;;16.03;14.40;;;;;;;6.72;100.00;101364.72;5027838;28;20265;-50
2022/01/01 06:07:56;;;;;;;15.37;13.80;;;;;;;6.72;100.00;101362.16;5024118;28;20842;-50
2022/01/01 06:10:22;;;;;;;16.10;14.53;;;;;;;6.70;100.00;101364.69;5013081;28;20201;-50
2022/01/01 06:12:48;;;;;;;16.77;15.10;;;;;;;6.68;100.00;101368.03;5017892;28;20191;-50
2022/01/01 06:15:14;;;;;;;15.33;13.80;;;;;;;6.65;100.00;101365.44;5018733;28;20194;-49
2022/01/01 06:17:39;;;;;;;15.43;13.27;;;;;;;6.61;100.00;101376.47;5018294;28;20695;-49
2022/01/01 06:20:05;;;;;;;15.00;13.43;;;;;;;6.56;100.00;101372.06;5014067;28;20203;-50
2022/01/01 06:22:30;;;;;;;14.87;13.27;;;;;;;6.51;100.00;101371.06;5017461;28;20213;-49
2022/01/01 06:24:56;;;;;;;16.77;14.80;;;;;;;6.49;100.00;101375.34;5018112;28;20772;-50
2022/01/01 06:27:21;;;;;;;17.90;16.13;;;;;;;6.46;100.00;101382.06;5018800;28;20216;-50
2022/01/01 06:29:46;;;;;;;15.43;13.93;;;;;;;6.38;100.00;101372.47;5014312;28;20568;-50
2022/01/01 06:32:12;;;;;;;16.23;14.43;;;;;;;6.35;100.00;101376.69;5010129;28;20303;-50
2022/01/01 06:34:38;;;;;;;15.10;13.60;;;;;;;6.30;100.00;101368.81;5009197;28;20280;-50
2022/01/01 06:37:04;;;;;;;15.83;13.77;;;;;;;6.27;100.00;101370.44;5012355;28;20385;-49
2022/01/01 06:39:29;;;;;;;14.17;12.73;;;;;;;6.21;100.00;101371.16;5014385;28;20202;-50
2022/01/01 06:41:54;;;;;;;13.80;12.30;;;;;;;6.17;100.00;101367.66;5012304;28;20197;-50
2022/01/01 06:44:20;;;;;;;13.97;12.57;;;;;;;6.17;100.00;101379.63;5012565;28;20210;-50
2022/01/01 06:46:45;;;;;;;14.10;12.70;;;;;;;6.18;100.00;101382.25;5014183;28;20189;-50
2022/01/01 06:49:10;;;;;;;13.20;11.90;;;;;;;6.22;100.00;101383.19;5017663;28;20600;-50
2022/01/01 06:51:36;;;;;;;13.17;11.77;;;;;;;6.27;100.00;101381.63;5009301;28;20265;-50
2022/01/01 06:54:05;;;;;;;13.13;11.83;;;;;;;6.30;100.00;101370.53;5018488;28;20191;-50
2022/01/01 06:56:30;;;;;;;12.60;11.37;;;;;;;6.33;100.00;101371.47;5022167;28;20213;-49
2022/01/01 06:58:55;;;;;;;12.97;11.77;;;;;;;6.36;100.00;101378.38;5026540;28;20243;-50
2022/01/01 07:01:21;;;;;;;13.40;12.03;;;;;;;6.39;100.00;101378.47;5016129;28;20186;-49
2022/01/01 07:03:46;;;;;;;13.77;12.40;;;;;;;6.43;100.00;101367.44;5019091;28;20250;-49
2022/01/01 07:06:11;;;;;;;12.87;11.67;;;;;;;6.47;100.00;101371.84;5016498;28;20667;-49
2022/01/01 07:08:37;;;;;;;12.10;10.90;;;;;;;6.50;100.00;101369.34;5025676;28;20678;-50
2022/01/01 07:11:02;;;;;;;12.67;11.47;;;;;;;6.54;100.00;101376.28;5025382;28;20304;-49
2022/01/01 07:13:27;;;;;;;13.30;11.50;;;;;;;6.56;100.00;101361.78;5021220;28;20199;-50
2022/01/01 07:15:53;;;;;;;12.30;11.13;;;;;;;6.59;100.00;101362.69;5021301;28;20199;-50
2022/01/01 07:18:18;;;;;;;12.93;11.27;;;;;;;6.60;100.00;101356.72;5018761;28;20889;-50
2022/01/01 07:20:43;;;;;;;11.50;10.40;;;;;;;6.62;100.00;101363.63;5023834;28;20724;-50
2022/01/01 07:23:10;;;;;;;12.20;10.90;;;;;;;6.62;100.00;101366.19;5025034;28;20662;-50
2022/01/01 07:25:36;;;;;;;12.27;11.00;;;;;;;6.63;100.00;101369.66;5025754;28;20195;-50
2022/01/01 07:28:02;;;;;;;12.03;10.83;;;;;;;6.63;100.00;101374.81;5017550;28;20766;-49
2022/01/01 07:30:27;;;;;;;10.50;9.50;;;;;;;6.65;100.00;101378.28;5012059;28;20202;-50
2022/01/01 07:32:53;;;;;;;11.57;10.47;;;;;;;6.66;100.00;101369.72;5009944;28;20691;-49
2022/01/01 07:35:20;;;;;;;10.97;9.90;;;;;;;6.65;100.00;101368.84;5011803;28;20199;-49
2022/01/01 07:37:45;;;;;;;10.30;9.30;;;;;;;6.67;100.00;101362.03;5011595;28;20316;-49
2022/01/01 07:40:13;;;;;;;10.90;9.80;;;;;;;6.70;100.00;101374.09;5017317;28;20644;-49
2022/01/01 07:42:40;;;;;;;11.73;10.50;;;;;;;6.74;100.00;101369.91;5022700;28;20214;-49
2022/01/01 07:45:06;;;;;;;12.47;11.27;;;;;;;6.77;100.00;101365.72;5019924;28;20202;-49
2022/01/01 07:47:32;;;;;;;12.73;10.90;;;;;;;6.82;100.00;101366.69;5007878;28;20204;-50
2022/01/01 07:49:57;;;;;;;12.27;10.67;;;;;;;6.89;100.00;101367.69;5015878;28;20194;-50
2022/01/01 07:52:23;;;;;;;12.33;11.07;;;;;;;6.95;100.00;101370.41;5014316;28;20597;-49
2022/01/01 07:54:48;;;;;;;11.83;10.43;;;;;;;7.00;100.00;101368.84;5024080;28;20201;-49
2022/01/01 07:57:14;;;;;;;12.03;10.83;;;;;;;7.09;100.00;101373.31;5023953;28;20210;-49
2022/01/01 07:59:39;;;;;;;12.23;10.97;;;;;;;7.20;100.00;101377.84;5024677;28;20746;-49
2022/01/01 08:02:04;;;;;;;12.63;11.33;;;;;;;7.32;100.00;101385.84;5008718;28;20650;-49
2022/01/01 08:04:30;;;;;;;13.43;11.43;;;;;;;7.42;100.00;101380.03;5026577;28;20293;-49
2022/01/01 08:06:55;;;;;;;13.30;11.90;;;;;;;7.51;100.00;101392.25;5022977;28;20273;-49
2022/01/01 08:09:21;;;;;;;12.70;11.40;;;;;;;7.58;100.00;101399.28;5010379;28;20202;-50
2022/01/01 08:11:46;;;;;;;12.33;11.13;;;;;;;7.62;100.00;101395.94;5027857;28;20587;-49
2022/01/01 08:14:12;;;;;;;11.80;10.60;;;;;;;7.71;100.00;101394.38;5007913;28;20408;-58
2022/01/01 08:16:58;;;;;;;11.43;10.33;;;;;;;7.80;100.00;101393.69;5023747;28;20194;-50
2022/01/01 08:19:24;;;;;;;12.63;10.80;;;;;;;7.85;100.00;101405.00;5011803;28;20214;-49
2022/01/01 08:21:49;;;;;;;10.27;9.37;;;;;;;7.90;100.00;101405.94;5018380;28;20212;-49
2022/01/01 08:24:14;;;;;;;11.83;10.63;;;;;;;7.93;100.00;101409.47;5011705;28;20188;-49
2022/01/01 08:26:40;;;;;;;9.70;8.73;;;;;;;7.97;100.00;101419.81;5011299;28;20198;-50
2022/01/01 08:29:05;;;;;;;9.63;8.67;;;;;;;8.01;100.00;101417.34;5012681;28;20572;-49
2022/01/01 08:31:30;;;;;;;10.13;9.13;;;;;;;8.07;100.00;101419.16;5021324;28;20246;-49
2022/01/01 08:33:56;;;;;;;13.07;11.10;;;;;;;8.12;100.00;101421.84;5015554;28;20713;-50
2022/01/01 08:36:21;;;;;;;10.90;9.80;;;;;;;8.13;100.00;101421.00;5012449;28;20306;-50
2022/01/01 08:38:46;;;;;;;11.23;10.13;;;;;;;8.15;100.00;101421.91;5024630;28;20215;-50
2022/01/01 08:41:12;;;;;;;9.93;9.03;;;;;;;8.16;100.00;101429.66;5034623;28;20202;-49
2022/01/01 08:43:38;;;;;;;9.83;8.93;;;;;;;8.22;100.00;101437.53;5025802;28;20688;-49
2022/01/01 08:46:03;;;;;;;10.43;9.43;;;;;;;8.30;100.00;101429.03;5013091;28;20222;-50
2022/01/01 08:48:29;;;;;;;10.10;9.20;;;;;;;8.37;100.00;101426.59;5020575;28;20207;-49
2022/01/01 08:50:54;;;;;;;11.10;9.93;;;;;;;8.48;100.00;101429.41;5013255;28;20222;-51
2022/01/01 08:53:19;;;;;;;10.87;9.77;;;;;;;8.60;100.00;101420.16;5012233;28;20318;-52
2022/01/01 08:55:45;;;;;;;9.73;8.80;;;;;;;8.74;100.00;101422.97;5014004;28;20233;-51
2022/01/01 08:58:11;;;;;;;9.93;9.03;;;;;;;8.90;100.00;101424.09;5008971;28;20235;-50
2022/01/01 09:00:36;;;;;;;9.47;8.30;;;;;;;9.04;100.00;101432.94;5015005;28;20400;-51
2022/01/01 09:03:01;;;;;;;10.00;9.00;;;;;;;9.20;100.00;101435.75;5014399;28;20234;-51
2022/01/01 09:05:27;;;;;;;9.70;8.70;;;;;;;9.34;100.00;101435.97;5011359;28;20214;-51
2022/01/01 09:07:53;;;;;;;9.87;8.87;;;;;;;9.44;100.00;101432.66;5009160;28;20329;-51
2022/01/01 09:10:20;;;;;;;9.43;8.47;;;;;;;9.48;100.00;101430.97;5011748;28;20291;-51
2022/01/01 09:12:45;;;;;;;9.87;8.90;;;;;;;9.45;100.00;101434.41;5012894;28;20692;-50
2022/01/01 09:15:11;;;;;;;9.27;8.37;;;;;;;9.39;100.00;101434.28;5019168;28;20241;-50
2022/01/01 09:17:36;;;;;;;8.77;7.97;;;;;;;9.36;100.00;101429.13;5024283;28;20227;-50
2022/01/01 09:20:02;;;;;;;9.30;8.40;;;;;;;9.32;100.00;101432.50;5012884;28;20216;-50
2022/01/01 09:22:28;;;;;;;9.27;8.33;;;;;;;9.24;100.00;101429.78;5013088;28;20185;-50
2022/01/01 09:24:54;;;;;;;10.60;9.23;;;;;;;9.14;100.00;101431.38;5015717;28;20206;-50
2022/01/01 09:27:20;;;;;;;9.60;8.70;;;;;;;9.09;100.00;101430.41;5017168;28;20222;-50
2022/01/01 09:29:46;;;;;;;10.23;8.80;;;;;;;9.05;100.00;101429.50;5017213;28;20313;-50
2022/01/01 09:32:11;;;;;;;11.03;9.93;;;;;;;9.03;100.00;101420.84;5016405;28;20207;-49
2022/01/01 09:34:37;;;;;;;10.53;9.43;;;;;;;9.00;100.00;101424.28;5022444;28;20233;-50
2022/01/01 09:37:03;;;;;;;10.87;9.77;;;;;;;9.00;100.00;101426.84;5023836;28;20218;-50
2022/01/01 09:39:28;;;;;;;10.73;9.63;;;;;;;9.00;100.00;101423.38;5020003;28;20222;-50
2022/01/01 09:41:55;;;;;;;10.53;9.53;;;;;;;9.00;100.00;101425.97;5014560;28;20195;-50
2022/01/01 09:44:21;;;;;;;9.10;8.27;;;;;;;9.03;100.00;101427.75;5019528;28;20203;-50
2022/01/01 09:46:50;;;;;;;9.70;8.53;;;;;;;9.08;100.00;101429.56;5019047;28;20210;-49
2022/01/01 09:49:19;;;;;;;10.50;9.50;;;;;;;9.12;100.00;101426.19;5022531;28;20214;-51
2022/01/01 09:51:46;;;;;;;10.13;9.13;;;;;;;9.13;100.00;101425.34;5018788;28;20269;-50
2022/01/01 09:54:12;;;;;;;9.33;8.53;;;;;;;9.18;100.00;101425.41;5013577;28;20617;-50
2022/01/01 09:56:38;;;;;;;9.17;8.37;;;;;;;9.23;100.00;101428.06;5011910;28;20250;-50
2022/01/01 09:59:04;;;;;;;8.97;8.07;;;;;;;9.29;100.00;101423.84;5021394;28;20188;-51
2022/01/01 10:01:29;;;;;;;9.53;8.50;;;;;;;9.35;100.00;101419.63;5012198;28;20211;-51
2022/01/01 10:03:58;;;;;;;9.73;8.83;;;;;;;9.43;100.00;101421.47;5015035;28;20590;-50
2022/01/01 10:06:26;;;;;;;10.57;9.57;;;;;;;9.53;100.00;101425.03;5017872;28;20920;-49
2022/01/01 10:09:00;;;;;;;10.50;9.07;;;;;;;9.61;100.00;101423.44;5013112;28;20281;-49
2022/01/01 10:11:27;;;;;;;9.63;8.63;;;;;;;9.69;100.00;101420.94;5018975;28;20199;-50
2022/01/01 10:13:53;;;;;;;10.50;9.60;;;;;;;9.77;100.00;101418.47;5017252;28;20218;-50
2022/01/01 10:16:19;;;;;;;9.60;8.70;;;;;;;9.86;100.00;101413.38;5016599;28;20195;-50
2022/01/01 10:18:54;;;;;;;11.33;10.13;;;;;;;9.96;100.00;101406.63;5012679;28;20217;-49
2022/01/01 10:21:22;;;;;;;9.87;8.87;;;;;;;10.10;100.00;101408.47;5017036;28;20593;-50
2022/01/01 10:23:52;;;;;;;9.63;8.73;;;;;;;10.21;100.00;101396.53;5016464;28;20201;-51
2022/01/01 10:29:16;;;;;;;7.73;6.93;;;;;;;10.42;100.00;101397.63;5011352;28;20203;-53
2022/01/01 10:32:00;;;;;;;7.83;7.13;;;;;;;10.49;100.00;101396.84;5015528;28;20678;-50
2022/01/01 10:34:28;;;;;;;8.20;7.40;;;;;;;10.51;100.00;101400.31;5010910;28;20601;-50
2022/01/01 10:36:55;;;;;;;7.40;6.63;;;;;;;10.57;100.00;101397.78;5019988;28;20373;-50
2022/01/01 10:39:21;;;;;;;6.77;6.17;;;;;;;10.64;100.00;101397.00;5015131;28;20691;-50
2022/01/01 10:42:03;;;;;;;6.93;6.23;;;;;;;10.74;100.00;101391.88;5017519;28;20311;-50
2022/01/01 10:44:33;;;;;;;6.17;5.63;;;;;;;10.82;100.00;101390.19;5019513;28;20234;-51
2022/01/01 10:47:04;;;;;;;6.30;5.70;;;;;;;10.87;100.00;101382.50;5022338;28;20241;-50
2022/01/01 10:50:01;;;;;;;6.77;6.13;;;;;;;10.93;100.00;101385.09;5014188;28;20192;-50
2022/01/01 10:52:29;;;;;;;6.57;5.87;;;;;;;11.01;100.00;101374.81;5022122;28;20268;-50
2022/01/01 10:54:59;;;;;;;6.47;5.87;;;;;;;11.08;100.00;101368.81;5016443;28;20563;-50
2022/01/01 10:57:33;;;;;;;5.90;5.40;;;;;;;11.15;100.00;101370.56;5016108;28;20263;-51
2022/01/01 11:00:15;;;;;;;7.20;6.50;;;;;;;11.16;100.00;101354.19;5014052;28;20299;-50
2022/01/01 11:02:55;;;;;;;7.60;6.90;;;;;;;11.19;100.00;101350.75;5014463;28;20189;-51
2022/01/01 11:05:33;;;;;;;6.93;6.30;;;;;;;11.28;100.00;101350.78;5014996;28;20307;-51
2022/01/01 11:08:00;;;;;;;7.37;6.67;;;;;;;11.32;100.00;101344.78;5016541;28;20772;-50
2022/01/01 11:10:27;;;;;;;6.97;6.27;;;;;;;11.40;100.00;101350.00;5014277;28;20197;-49
2022/01/01 11:12:56;;;;;;;6.70;5.67;;;;;;;11.50;100.00;101348.28;5018278;28;20645;-50
2022/01/01 11:15:23;;;;;;;6.97;6.30;;;;;;;11.61;100.00;101337.97;5013986;28;20290;-52